Time;durP1;ratioP1;P1;durP2;ratioP2;P2;SDS_P1;SDS_P2;PMS_P1;PMS_P2;Temp;Humidity;BMP_temperature;BMP_pressure;BME280_temperature;BME280_humidity;BME280_pressure;Samples;Min_cycle;Max_cycle;Signal;HPM_P1;HPM_P2
2023/12/02 00:00:27;;;;;;;50.95;35.92;;;;;;;7.26;100.00;105691.72;4974913;28;20022;-75
2023/12/02 00:02:52;;;;;;;52.42;36.13;;;;;;;7.01;100.00;105715.91;4974204;28;20120;-75
2023/12/02 00:05:18;;;;;;;48.72;34.83;;;;;;;7.38;100.00;105833.63;4991640;28;20053;-75
2023/12/02 00:07:43;;;;;;;44.75;33.90;;;;;;;7.42;100.00;105893.91;4991564;28;20034;-75
2023/12/02 00:10:11;;;;;;;49.65;35.58;;;;;;;7.47;100.00;105964.44;4992128;28;20034;-75
2023/12/02 00:12:37;;;;;;;47.25;34.67;;;;;;;6.93;100.00;105874.72;4991931;28;20022;-71
2023/12/02 00:15:03;;;;;;;53.95;35.25;;;;;;;7.31;100.00;105993.47;4990514;28;20049;-76
2023/12/02 00:17:28;;;;;;;50.50;35.40;;;;;;;7.20;100.00;106002.72;4992027;28;20030;-76
2023/12/02 00:19:54;;;;;;;48.08;34.55;;;;;;;6.82;100.00;105960.66;4991460;28;20576;-76
2023/12/02 00:22:19;;;;;;;46.67;33.45;;;;;;;7.44;100.00;106118.75;4991223;28;20045;-75
2023/12/02 00:24:45;;;;;;;46.35;33.25;;;;;;;6.90;100.00;106022.91;4991221;28;20076;-75
2023/12/02 00:27:10;;;;;;;48.92;34.45;;;;;;;7.19;100.00;106125.00;4991922;28;20037;-76
2023/12/02 00:29:36;;;;;;;45.40;33.47;;;;;;;7.15;100.00;106150.81;4991303;28;20603;-75
2023/12/02 00:32:02;;;;;;;48.00;33.45;;;;;;;6.78;100.00;106115.50;4990330;28;20117;-73
2023/12/02 00:34:27;;;;;;;45.25;34.35;;;;;;;7.15;100.00;106195.53;4989202;28;20034;-76
2023/12/02 00:36:53;;;;;;;44.13;33.78;;;;;;;6.85;100.00;106153.25;4974216;28;20038;-75
2023/12/02 00:39:18;;;;;;;46.45;34.05;;;;;;;7.22;100.00;106251.00;4973978;28;20041;-76
2023/12/02 00:41:45;;;;;;;46.35;33.83;;;;;;;6.79;100.00;106203.34;4991530;28;20108;-76
2023/12/02 00:44:11;;;;;;;45.10;32.72;;;;;;;6.77;100.00;106187.13;4991901;28;20035;-75
2023/12/02 00:46:36;;;;;;;42.58;31.33;;;;;;;7.19;100.00;106309.00;4991653;28;20408;-76
2023/12/02 00:49:02;;;;;;;43.28;31.67;;;;;;;6.96;100.00;106266.44;4973821;28;20042;-75
2023/12/02 00:51:28;;;;;;;44.55;32.17;;;;;;;7.13;100.00;106332.13;4973212;28;20100;-75
2023/12/02 00:53:53;;;;;;;49.83;35.08;;;;;;;7.05;100.00;106332.19;4990912;28;20042;-76
2023/12/02 00:56:19;;;;;;;57.08;39.95;;;;;;;6.96;100.00;106300.25;4989664;28;20084;-75
2023/12/02 00:58:44;;;;;;;139.02;87.28;;;;;;;6.69;100.00;106204.19;4974256;28;20090;-76
2023/12/02 01:01:10;;;;;;;103.75;65.82;;;;;;;6.68;100.00;106179.59;4973810;28;20036;-73
2023/12/02 01:03:35;;;;;;;68.78;47.63;;;;;;;6.20;100.00;106078.28;4989457;28;20084;-74
2023/12/02 01:06:01;;;;;;;55.55;39.45;;;;;;;6.32;100.00;106150.19;4991118;28;20096;-76
2023/12/02 01:08:27;;;;;;;51.17;35.47;;;;;;;6.65;100.00;106176.81;4983674;28;20038;-76
2023/12/02 01:10:52;;;;;;;48.22;34.38;;;;;;;6.76;100.00;106241.91;4990734;28;20509;-76
2023/12/02 01:13:18;;;;;;;65.32;42.85;;;;;;;6.07;100.00;106111.69;4991544;28;20034;-74
2023/12/02 01:15:43;;;;;;;52.75;35.72;;;;;;;6.75;100.00;106231.66;4991004;28;20038;-76
2023/12/02 01:18:08;;;;;;;48.40;34.63;;;;;;;6.42;100.00;106206.75;4989822;28;20042;-76
2023/12/02 01:20:34;;;;;;;63.78;44.08;;;;;;;6.68;100.00;106292.56;4973588;28;20053;-76
2023/12/02 01:22:59;;;;;;;65.82;45.78;;;;;;;6.41;100.00;106237.88;4973691;28;20031;-74
2023/12/02 01:25:25;;;;;;;51.33;35.28;;;;;;;6.44;100.00;106297.97;4990813;28;20547;-77
2023/12/02 01:27:51;;;;;;;56.67;38.67;;;;;;;6.20;100.00;106308.38;4990881;28;20038;-78
2023/12/02 01:30:16;;;;;;;55.50;38.20;;;;;;;6.82;100.00;106472.78;4990535;28;20038;-80
2023/12/02 01:32:42;;;;;;;75.25;46.30;;;;;;;6.44;100.00;106430.34;4990772;28;20057;-77
2023/12/02 01:35:07;;;;;;;59.72;39.50;;;;;;;6.12;100.00;106353.13;4989145;28;20031;-77
2023/12/02 01:37:33;;;;;;;61.13;39.22;;;;;;;6.49;100.00;106400.44;4973384;28;20030;-76
2023/12/02 01:39:58;;;;;;;57.83;40.72;;;;;;;6.42;100.00;106380.41;4973108;28;20042;-77
2023/12/02 01:42:24;;;;;;;57.42;39.53;;;;;;;6.53;100.00;106411.00;4972584;28;20073;-76
2023/12/02 01:44:49;;;;;;;53.15;39.22;;;;;;;6.27;100.00;106384.91;4989311;28;20033;-77
2023/12/02 01:47:15;;;;;;;50.05;38.17;;;;;;;6.68;100.00;106459.56;4973065;28;20058;-78
2023/12/02 01:49:42;;;;;;;56.28;37.95;;;;;;;6.46;100.00;106379.91;4989612;28;20459;-77
2023/12/02 01:52:08;;;;;;;53.60;36.50;;;;;;;6.09;100.00;106309.88;4990247;28;20114;-77
2023/12/02 01:54:34;;;;;;;58.33;40.97;;;;;;;6.34;100.00;106324.03;4970938;28;20390;-78
2023/12/02 01:57:00;;;;;;;54.17;37.60;;;;;;;6.46;100.00;106342.88;4990184;28;20042;-76
2023/12/02 01:59:25;;;;;;;62.47;43.25;;;;;;;6.01;100.00;106247.63;4972944;28;20026;-78
2023/12/02 02:01:51;;;;;;;59.13;41.58;;;;;;;6.28;100.00;106239.16;4973092;28;20034;-74
2023/12/02 02:04:18;;;;;;;61.45;42.72;;;;;;;5.83;100.00;106159.97;4989549;28;20129;-76
2023/12/02 02:06:44;;;;;;;57.47;42.97;;;;;;;6.43;100.00;106268.34;4972605;28;20034;-78
2023/12/02 02:09:10;;;;;;;60.35;42.05;;;;;;;5.89;100.00;106151.38;4972676;28;20026;-78
2023/12/02 02:11:35;;;;;;;54.22;39.10;;;;;;;5.63;100.00;106089.06;4972041;28;20030;-77
2023/12/02 02:14:01;;;;;;;56.25;41.45;;;;;;;5.90;100.00;106137.09;4989852;28;20030;-78
2023/12/02 02:16:26;;;;;;;55.47;40.38;;;;;;;6.40;100.00;106220.91;4972573;28;20057;-76
2023/12/02 02:18:52;;;;;;;73.72;50.15;;;;;;;6.16;100.00;106131.88;4990292;28;20298;-78
2023/12/02 02:21:20;;;;;;;71.55;47.88;;;;;;;6.15;100.00;106156.25;4989898;28;20109;-77
2023/12/02 02:23:46;;;;;;;66.18;42.97;;;;;;;5.72;100.00;106032.72;4989909;28;20061;-77
2023/12/02 02:26:11;;;;;;;60.13;40.65;;;;;;;6.10;100.00;106086.72;4972335;28;20072;-78
2023/12/02 02:28:37;;;;;;;80.40;51.65;;;;;;;6.45;100.00;106170.75;4988254;28;20041;-76
2023/12/02 02:31:02;;;;;;;55.13;40.80;;;;;;;6.28;100.00;106103.47;4987654;28;20084;-77
2023/12/02 02:33:31;;;;;;;56.47;39.58;;;;;;;5.69;100.00;105959.16;4989003;28;20582;-76
2023/12/02 02:35:57;;;;;;;53.22;38.83;;;;;;;5.50;100.00;105917.00;4989625;28;20035;-76
2023/12/02 02:38:23;;;;;;;55.60;41.22;;;;;;;6.12;100.00;105989.13;4987899;28;20042;-74
2023/12/02 02:40:48;;;;;;;53.65;37.92;;;;;;;6.04;100.00;105932.00;4989952;28;20467;-76
2023/12/02 02:43:14;;;;;;;50.42;37.55;;;;;;;5.72;100.00;105868.53;4989817;28;20034;-77
2023/12/02 02:45:39;;;;;;;51.25;36.63;;;;;;;5.83;100.00;105872.88;4989249;28;20026;-74
2023/12/02 02:48:05;;;;;;;53.00;37.28;;;;;;;5.99;100.00;105870.03;4988957;28;20041;-74
2023/12/02 02:50:31;;;;;;;50.92;36.25;;;;;;;5.97;100.00;105848.81;4989517;28;20026;-76
2023/12/02 02:52:56;;;;;;;51.25;36.83;;;;;;;5.76;100.00;105759.41;4989815;28;20030;-76
2023/12/02 02:55:21;;;;;;;51.83;37.05;;;;;;;5.32;100.00;105667.97;4973021;28;20030;-76
2023/12/02 02:57:47;;;;;;;53.15;37.10;;;;;;;5.99;100.00;105786.66;4988667;28;20058;-76
2023/12/02 03:00:13;;;;;;;46.15;33.45;;;;;;;6.11;100.00;105823.06;4988367;28;20031;-76
2023/12/02 03:02:39;;;;;;;46.35;33.30;;;;;;;5.65;100.00;105679.31;4988773;28;20069;-76
2023/12/02 03:05:05;;;;;;;45.67;30.23;;;;;;;5.43;100.00;105653.00;4988566;28;20113;-77
2023/12/02 03:07:31;;;;;;;46.25;31.63;;;;;;;5.20;100.00;105599.69;4988152;28;20081;-75
2023/12/02 03:09:57;;;;;;;42.30;30.70;;;;;;;5.68;100.00;105684.63;4971943;28;20038;-76
2023/12/02 03:12:24;;;;;;;46.00;31.17;;;;;;;5.21;100.00;105620.00;4971784;28;20045;-75
2023/12/02 03:14:51;;;;;;;48.28;31.70;;;;;;;5.57;100.00;105671.81;4988961;28;20038;-75
2023/12/02 03:17:16;;;;;;;49.50;32.22;;;;;;;5.71;100.00;105717.69;4972088;28;20027;-76
2023/12/02 03:19:42;;;;;;;42.47;30.33;;;;;;;5.78;100.00;105742.75;4989416;28;20390;-75
2023/12/02 03:22:07;;;;;;;40.97;28.90;;;;;;;5.96;100.00;105797.38;4989412;28;20027;-76
2023/12/02 03:24:33;;;;;;;40.97;30.08;;;;;;;5.93;100.00;105796.22;4989389;28;20164;-75
2023/12/02 03:26:58;;;;;;;46.13;32.20;;;;;;;5.56;100.00;105715.53;4988838;28;20065;-76
2023/12/02 03:29:24;;;;;;;41.97;29.83;;;;;;;5.83;100.00;105743.09;4986939;28;20033;-75
2023/12/02 03:31:49;;;;;;;44.13;30.80;;;;;;;5.64;100.00;105674.13;4971552;28;20061;-76
2023/12/02 03:34:15;;;;;;;41.15;29.23;;;;;;;5.32;100.00;105599.84;4971760;28;20034;-77
2023/12/02 03:36:40;;;;;;;43.35;29.23;;;;;;;5.27;100.00;105592.75;4988630;28;20096;-77
2023/12/02 03:39:06;;;;;;;39.95;28.25;;;;;;;5.17;100.00;105574.16;4971685;28;20030;-75
2023/12/02 03:41:32;;;;;;;41.80;30.35;;;;;;;5.43;100.00;105611.72;4973137;28;20042;-77
2023/12/02 03:43:58;;;;;;;44.53;29.92;;;;;;;5.87;100.00;105709.81;4992503;28;20096;-76
2023/12/02 03:46:23;;;;;;;39.83;28.35;;;;;;;5.88;100.00;105716.66;4973682;28;20054;-74
2023/12/02 03:48:49;;;;;;;43.88;30.25;;;;;;;5.86;100.00;105686.16;4991924;28;20567;-76
2023/12/02 03:51:14;;;;;;;48.10;32.88;;;;;;;6.00;100.00;105728.63;4991537;28;20038;-75
2023/12/02 03:53:40;;;;;;;51.55;34.13;;;;;;;5.60;100.00;105619.06;4973113;28;20421;-76
2023/12/02 03:56:06;;;;;;;44.15;31.33;;;;;;;5.80;100.00;105680.56;4989974;28;20030;-70
2023/12/02 03:58:31;;;;;;;45.03;32.88;;;;;;;6.53;100.00;105889.00;4974571;28;20509;-75
2023/12/02 04:00:57;;;;;;;42.88;30.60;;;;;;;5.91;100.00;105732.94;4990895;28;20034;-77
2023/12/02 04:03:23;;;;;;;43.67;31.83;;;;;;;5.47;100.00;105644.91;4971000;28;20030;-73
2023/12/02 04:05:50;;;;;;;40.22;29.05;;;;;;;5.76;100.00;105691.22;4973109;28;20032;-73
2023/12/02 04:08:16;;;;;;;39.95;30.00;;;;;;;5.49;100.00;105629.88;4990473;28;20035;-73
2023/12/02 04:10:41;;;;;;;41.72;30.10;;;;;;;5.16;100.00;105562.31;4990896;28;20064;-75
2023/12/02 04:13:07;;;;;;;43.08;31.05;;;;;;;5.61;100.00;105600.63;4987593;28;20114;-75
2023/12/02 04:15:33;;;;;;;54.20;35.95;;;;;;;5.59;100.00;105586.97;4990527;28;20057;-76
2023/12/02 04:17:59;;;;;;;66.10;41.20;;;;;;;5.33;100.00;105541.03;4991769;28;20145;-80
2023/12/02 04:20:24;;;;;;;55.00;36.92;;;;;;;5.52;100.00;105554.41;4990661;28;20041;-75
2023/12/02 04:22:50;;;;;;;59.75;36.88;;;;;;;5.38;100.00;105524.63;4974146;28;20074;-77
2023/12/02 04:25:15;;;;;;;96.80;61.58;;;;;;;5.38;100.00;105510.38;4974050;28;20026;-75
2023/12/02 04:27:41;;;;;;;78.88;54.85;;;;;;;5.39;100.00;105516.31;4973824;28;20047;-75
2023/12/02 04:30:08;;;;;;;63.20;40.55;;;;;;;5.29;100.00;105505.44;4991157;28;20034;-73
2023/12/02 04:32:34;;;;;;;49.92;33.25;;;;;;;5.10;100.00;105439.06;4990764;28;20117;-75
2023/12/02 04:34:59;;;;;;;42.28;30.58;;;;;;;5.40;100.00;105497.84;4991167;28;20173;-72
2023/12/02 04:37:25;;;;;;;45.33;26.60;;;;;;;7.77;100.00;106108.88;4990488;28;20037;-74
2023/12/02 04:39:52;;;;;;;49.72;34.95;;;;;;;5.30;100.00;105559.31;4980870;28;20041;-73
2023/12/02 04:42:18;;;;;;;48.97;33.83;;;;;;;5.39;100.00;105556.69;4975064;28;20523;-76
2023/12/02 04:44:43;;;;;;;61.25;41.55;;;;;;;5.18;100.00;105486.00;4990791;28;20034;-74
2023/12/02 04:47:09;;;;;;;48.30;31.30;;;;;;;8.06;100.00;106217.75;4990403;28;20026;-74
2023/12/02 04:49:34;;;;;;;77.78;49.05;;;;;;;6.84;100.00;105997.09;4970815;28;20037;-76
2023/12/02 04:52:00;;;;;;;82.38;45.38;;;;;;;5.36;100.00;105562.34;4989681;28;20093;-74
2023/12/02 04:54:25;;;;;;;80.95;47.53;;;;;;;4.88;100.00;105429.56;4990918;28;20029;-75
2023/12/02 04:56:50;;;;;;;142.70;83.80;;;;;;;4.84;100.00;105377.13;4991029;28;20033;-74
2023/12/02 04:59:16;;;;;;;134.95;75.47;;;;;;;5.14;100.00;105408.28;4973026;28;20104;-74
2023/12/02 05:01:43;;;;;;;82.45;50.80;;;;;;;4.62;100.00;105301.34;4990486;28;20050;-74
2023/12/02 05:04:08;;;;;;;73.20;43.38;;;;;;;4.98;100.00;105357.31;4989390;28;20030;-74
2023/12/02 05:06:34;;;;;;;78.43;42.05;;;;;;;5.17;100.00;105397.53;4973632;28;20041;-74
2023/12/02 05:08:59;;;;;;;74.15;41.80;;;;;;;5.25;100.00;105426.78;4990619;28;20116;-75
2023/12/02 05:11:25;;;;;;;76.03;42.70;;;;;;;5.53;100.00;105528.41;4988657;28;20037;-74
2023/12/02 05:13:50;;;;;;;105.07;59.90;;;;;;;4.81;100.00;105414.69;4990156;28;20113;-73
2023/12/02 05:16:16;;;;;;;86.45;50.92;;;;;;;5.50;100.00;105551.78;4972483;28;20041;-74
2023/12/02 05:18:42;;;;;;;117.80;64.55;;;;;;;5.03;100.00;105474.63;4988069;28;20129;-73
2023/12/02 05:21:11;;;;;;;109.13;59.33;;;;;;;5.44;100.00;105580.66;4990221;28;20042;-74
2023/12/02 05:23:39;;;;;;;106.72;60.15;;;;;;;5.44;100.00;105565.50;4989665;28;20056;-74
2023/12/02 05:26:06;;;;;;;96.80;55.40;;;;;;;5.35;100.00;105564.75;4990133;28;20026;-74
2023/12/02 05:28:32;;;;;;;86.38;50.03;;;;;;;5.39;100.00;105546.59;4990321;28;20071;-74
2023/12/02 05:30:58;;;;;;;81.03;47.33;;;;;;;5.49;100.00;105570.19;4973505;28;20069;-74
2023/12/02 05:33:23;;;;;;;84.10;46.38;;;;;;;5.43;100.00;105551.13;4989965;28;20042;-74
2023/12/02 05:35:49;;;;;;;85.80;46.80;;;;;;;4.81;100.00;105423.16;4989206;28;20113;-74
2023/12/02 05:38:15;;;;;;;100.78;56.45;;;;;;;5.15;100.00;105477.31;4972884;28;20085;-73
2023/12/02 05:40:41;;;;;;;90.95;53.55;;;;;;;4.79;100.00;105443.94;4990100;28;20496;-72
2023/12/02 05:43:07;;;;;;;103.10;55.95;;;;;;;4.86;100.00;105479.91;4989611;28;20034;-74
2023/12/02 05:45:34;;;;;;;172.50;82.40;;;;;;;5.11;100.00;105556.03;4990356;28;20038;-74
2023/12/02 05:48:00;;;;;;;169.15;85.32;;;;;;;4.53;100.00;105398.91;4989692;28;20105;-75
2023/12/02 05:50:29;;;;;;;173.65;90.18;;;;;;;4.91;100.00;105497.94;4972559;28;20120;-74
2023/12/02 05:52:54;;;;;;;202.23;100.38;;;;;;;4.77;100.00;105443.84;4971412;28;20041;-74
2023/12/02 05:55:20;;;;;;;137.98;78.15;;;;;;;4.99;100.00;105517.13;4972064;28;20026;-73
2023/12/02 05:57:46;;;;;;;158.02;83.93;;;;;;;4.97;100.00;105494.28;4987035;28;20417;-73
2023/12/02 06:00:12;;;;;;;108.68;59.80;;;;;;;5.53;100.00;105635.34;4972762;28;20030;-75
2023/12/02 06:02:37;;;;;;;100.10;57.25;;;;;;;4.85;100.00;105532.75;4972288;28;20034;-74
2023/12/02 06:05:03;;;;;;;99.25;55.30;;;;;;;5.49;100.00;105671.19;4972720;28;20041;-74
2023/12/02 06:07:29;;;;;;;75.03;44.75;;;;;;;4.79;100.00;105507.00;4989901;28;20034;-74
2023/12/02 06:09:54;;;;;;;73.40;45.40;;;;;;;5.49;100.00;105647.56;4972003;28;20117;-73
2023/12/02 06:12:20;;;;;;;73.57;44.88;;;;;;;5.73;100.00;105700.16;4971856;28;20034;-73
2023/12/02 06:14:46;;;;;;;79.13;49.67;;;;;;;5.73;100.00;105682.47;4989565;28;20038;-74
2023/12/02 06:17:11;;;;;;;93.85;53.50;;;;;;;6.18;100.00;105756.22;4990233;28;20033;-74
2023/12/02 06:19:37;;;;;;;91.15;52.13;;;;;;;6.17;100.00;105770.50;4990083;28;20464;-74
2023/12/02 06:22:02;;;;;;;77.05;44.45;;;;;;;6.50;100.00;105790.09;4972357;28;20023;-73
2023/12/02 06:24:28;;;;;;;80.63;42.63;;;;;;;6.45;100.00;105735.75;4972590;28;20044;-75
2023/12/02 06:26:53;;;;;;;86.05;46.05;;;;;;;7.47;100.00;105907.81;4972696;28;20049;-74
2023/12/02 06:29:19;;;;;;;90.25;51.75;;;;;;;8.14;100.00;106079.78;4972348;28;20057;-74
2023/12/02 06:31:48;;;;;;;134.00;84.53;;;;;;;10.36;100.00;106673.19;4972480;28;20038;-74
2023/12/02 06:34:14;;;;;;;164.55;115.78;;;;;;;9.53;100.00;106306.84;4988090;28;20041;-74
2023/12/02 06:36:39;;;;;;;159.43;111.72;;;;;;;8.27;100.00;105813.69;4989446;28;20026;-75
2023/12/02 06:39:05;;;;;;;193.55;133.18;;;;;;;11.89;100.00;106639.34;4977421;28;20489;-75
2023/12/02 06:41:30;;;;;;;183.05;120.97;;;;;;;12.79;100.00;106726.88;4989195;28;20035;-75
2023/12/02 06:43:56;;;;;;;134.10;96.50;;;;;;;11.40;100.00;106146.78;4988809;28;20033;-74
2023/12/02 06:46:23;;;;;;;112.93;77.93;;;;;;;13.75;100.00;106613.41;4989171;28;20030;-74
2023/12/02 06:48:49;;;;;;;90.28;60.20;;;;;;;12.43;100.00;106103.50;4989621;28;20057;-76
2023/12/02 06:51:15;;;;;;;80.10;55.30;;;;;;;14.77;100.00;106626.91;4989262;28;20073;-76
2023/12/02 06:53:41;;;;;;;88.88;60.10;;;;;;;14.69;100.00;106438.38;4989179;28;20054;-75
2023/12/02 06:56:18;;;;;;;86.85;57.58;;;;;;;12.54;100.00;105735.56;4970789;28;20045;-76
2023/12/02 06:58:44;;;;;;;97.07;65.60;;;;;;;8.94;100.00;104754.88;4988445;28;20026;-75
2023/12/02 07:01:10;;;;;;;107.70;75.28;;;;;;;8.62;100.00;104583.06;4972658;28;20031;-75
2023/12/02 07:03:37;;;;;;;93.90;66.57;;;;;;;8.18;100.00;104451.28;4989350;28;20026;-76
2023/12/02 07:06:03;;;;;;;80.25;57.15;;;;;;;8.77;100.00;104528.06;4989307;28;20030;-76
2023/12/02 07:08:29;;;;;;;83.75;58.70;;;;;;;8.46;100.00;104444.38;4971763;28;20480;-76
2023/12/02 07:10:54;;;;;;;67.82;49.05;;;;;;;8.80;100.00;104467.31;4988548;28;20089;-75
2023/12/02 07:13:20;;;;;;;63.70;44.92;;;;;;;8.35;100.00;104361.81;4989661;28;20034;-74
2023/12/02 07:15:45;;;;;;;62.22;43.35;;;;;;;8.77;100.00;104404.56;4991349;28;20037;-75
2023/12/02 07:18:11;;;;;;;56.47;41.85;;;;;;;8.62;100.00;104331.88;4992793;28;20073;-74
2023/12/02 07:20:37;;;;;;;60.88;42.22;;;;;;;9.01;100.00;104368.56;4993321;28;20031;-76
2023/12/02 07:23:02;;;;;;;55.72;42.05;;;;;;;9.14;100.00;104374.28;4992965;28;20121;-76
2023/12/02 07:25:28;;;;;;;58.53;43.90;;;;;;;8.97;100.00;104339.63;4992988;28;20091;-76
2023/12/02 07:27:54;;;;;;;60.25;44.35;;;;;;;9.60;100.00;104439.25;4992730;28;20049;-75
2023/12/02 07:30:19;;;;;;;61.13;45.58;;;;;;;9.67;100.00;104421.72;4991567;28;20073;-72
2023/12/02 07:32:46;;;;;;;60.13;43.63;;;;;;;9.82;100.00;104458.91;4974956;28;20103;-75
2023/12/02 07:35:11;;;;;;;48.55;36.10;;;;;;;9.22;100.00;104336.56;4993322;28;20022;-76
2023/12/02 07:37:37;;;;;;;52.80;37.47;;;;;;;9.44;100.00;104369.81;4991721;28;20041;-75
2023/12/02 07:40:03;;;;;;;46.88;34.13;;;;;;;9.72;100.00;104423.69;4992907;28;20043;-76
2023/12/02 07:42:28;;;;;;;44.95;32.20;;;;;;;9.65;100.00;104401.31;4992447;28;20030;-73
2023/12/02 07:44:54;;;;;;;41.45;30.63;;;;;;;9.65;100.00;104401.31;4992620;28;20560;-76
2023/12/02 07:47:19;;;;;;;45.63;31.83;;;;;;;9.75;100.00;104408.56;4992556;28;20408;-76
2023/12/02 07:49:45;;;;;;;43.38;32.50;;;;;;;9.99;100.00;104457.16;4992696;28;20084;-78
2023/12/02 07:52:10;;;;;;;44.88;32.08;;;;;;;9.83;100.00;104434.34;4991511;28;20398;-75
2023/12/02 07:54:36;;;;;;;43.75;32.30;;;;;;;10.01;100.00;104465.72;4992529;28;20026;-75
2023/12/02 07:57:02;;;;;;;44.13;30.80;;;;;;;10.26;100.00;104522.94;4992395;28;20034;-74
2023/12/02 07:59:28;;;;;;;39.10;30.20;;;;;;;10.23;100.00;104515.16;4992488;28;20038;-76
2023/12/02 08:01:53;;;;;;;44.88;31.45;;;;;;;10.36;100.00;104535.28;4992565;28;20046;-75
2023/12/02 08:04:19;;;;;;;40.70;30.52;;;;;;;10.13;100.00;104499.38;4992674;28;20034;-75
2023/12/02 08:06:45;;;;;;;42.38;31.00;;;;;;;10.55;100.00;104566.66;4992052;28;20037;-74
2023/12/02 08:09:14;;;;;;;39.83;30.85;;;;;;;10.64;100.00;104579.81;4991898;28;20058;-75
2023/12/02 08:11:40;;;;;;;40.55;30.83;;;;;;;10.51;100.00;104565.66;4974089;28;20120;-76
2023/12/02 08:14:06;;;;;;;42.17;32.75;;;;;;;10.75;100.00;104606.66;4974831;28;20066;-76
2023/12/02 08:16:31;;;;;;;51.28;37.08;;;;;;;10.53;100.00;104560.63;4992159;28;20568;-75
2023/12/02 08:18:57;;;;;;;55.08;41.78;;;;;;;10.96;100.00;104641.59;4974604;28;20046;-74
2023/12/02 08:21:22;;;;;;;56.90;41.03;;;;;;;11.01;100.00;104657.09;4974257;28;20040;-75
2023/12/02 08:23:49;;;;;;;50.08;38.45;;;;;;;11.17;100.00;104669.75;4975084;28;20038;-75
2023/12/02 08:26:15;;;;;;;48.63;38.65;;;;;;;11.51;100.00;104726.50;4991934;28;20035;-74
2023/12/02 08:28:40;;;;;;;51.28;39.63;;;;;;;11.21;100.00;104669.06;4974102;28;20480;-75
2023/12/02 08:31:06;;;;;;;51.03;40.10;;;;;;;11.34;100.00;104687.53;4991700;28;20041;-75
2023/12/02 08:33:31;;;;;;;53.80;41.47;;;;;;;11.08;100.00;104631.97;4991001;28;20539;-75
2023/12/02 08:35:57;;;;;;;61.65;48.80;;;;;;;11.57;100.00;104701.28;4991313;28;20125;-75
2023/12/02 08:38:22;;;;;;;55.30;42.45;;;;;;;11.43;100.00;104676.00;4991758;28;20037;-74
2023/12/02 08:40:49;;;;;;;48.75;37.67;;;;;;;11.52;100.00;104695.13;4991244;28;20077;-74
2023/12/02 08:43:15;;;;;;;47.80;36.95;;;;;;;12.00;100.00;104761.03;4973894;28;20030;-74
2023/12/02 08:45:42;;;;;;;45.33;36.17;;;;;;;12.23;100.00;104804.53;4972436;28;20106;-73
2023/12/02 08:48:07;;;;;;;45.83;36.30;;;;;;;12.12;100.00;104763.28;4989581;28;20033;-75
2023/12/02 08:50:33;;;;;;;44.20;34.08;;;;;;;12.26;100.00;104784.25;4991378;28;20034;-75
2023/12/02 08:52:59;;;;;;;50.63;34.63;;;;;;;12.32;100.00;104797.28;4973946;28;20473;-75
2023/12/02 08:55:24;;;;;;;42.75;33.88;;;;;;;12.41;100.00;104810.44;4973432;28;20114;-74
2023/12/02 08:57:50;;;;;;;44.17;32.50;;;;;;;11.82;100.00;104696.50;4991307;28;20022;-74
2023/12/02 09:00:16;;;;;;;41.47;30.35;;;;;;;12.30;100.00;104794.66;4991144;28;20037;-74
2023/12/02 09:02:42;;;;;;;41.83;32.47;;;;;;;11.89;100.00;104698.47;4973285;28;20034;-73
2023/12/02 09:05:08;;;;;;;41.25;31.90;;;;;;;12.22;100.00;104752.66;4981338;28;20100;-74
2023/12/02 09:07:33;;;;;;;45.13;33.90;;;;;;;11.90;100.00;104702.78;4973592;28;20034;-74
2023/12/02 09:09:59;;;;;;;41.97;32.97;;;;;;;12.24;100.00;104761.19;4989439;28;20109;-74
2023/12/02 09:12:24;;;;;;;42.63;32.83;;;;;;;12.17;100.00;104749.88;4972844;28;20437;-74
2023/12/02 09:15:16;;;;;;;45.80;33.60;;;;;;;12.55;100.00;104812.78;4973803;28;20026;-74
2023/12/02 09:18:23;;;;;;;40.45;31.67;;;;;;;12.99;100.00;104894.66;4989867;28;20109;-75
2023/12/02 09:20:53;;;;;;;47.15;32.75;;;;;;;13.02;100.00;104899.91;4990254;28;20525;-74
2023/12/02 09:23:20;;;;;;;54.70;36.00;;;;;;;12.49;100.00;104793.75;4973399;28;20121;-74
2023/12/02 09:25:47;;;;;;;63.75;41.65;;;;;;;12.72;100.00;104824.53;4989919;28;20038;-74
2023/12/02 09:28:20;;;;;;;65.78;44.25;;;;;;;13.02;100.00;104866.69;4989065;28;20474;-74
2023/12/02 09:30:46;;;;;;;64.13;42.85;;;;;;;13.24;100.00;104882.91;4989799;28;20033;-73
2023/12/02 09:33:11;;;;;;;58.03;36.72;;;;;;;13.20;100.00;104879.38;4990495;28;20030;-74
2023/12/02 09:35:37;;;;;;;59.17;39.25;;;;;;;12.76;100.00;104793.22;4973198;28;20026;-75
2023/12/02 09:38:03;;;;;;;57.58;40.75;;;;;;;12.95;100.00;104822.94;4990000;28;20034;-75
2023/12/02 09:40:54;;;;;;;54.22;39.72;;;;;;;13.49;100.00;104913.78;4982749;28;20030;-76
2023/12/02 09:43:58;;;;;;;51.88;35.75;;;;;;;13.64;100.00;104935.72;4990507;28;20034;-76
2023/12/02 09:46:28;;;;;;;42.28;29.80;;;;;;;13.63;100.00;104925.41;4972728;28;20042;-76
2023/12/02 09:49:10;;;;;;;41.40;29.52;;;;;;;13.78;100.00;104937.16;4989184;28;20073;-76
2023/12/02 09:51:50;;;;;;;;;;;;;;;13.74;100.00;104902.00;4972774;28;20091;-74
2023/12/02 09:54:32;;;;;;;47.67;31.58;;;;;;;13.91;100.00;104931.66;4990336;28;19961;-76
2023/12/02 09:57:26;;;;;;;44.05;32.55;;;;;;;13.56;100.00;104852.69;4989112;28;20505;-75
2023/12/02 10:00:12;;;;;;;41.30;28.10;;;;;;;13.59;100.00;104872.38;4944621;28;20494;-74
2023/12/02 10:03:12;;;;;;;39.35;28.35;;;;;;;14.10;100.00;104937.50;4989809;28;20109;-74
2023/12/02 10:06:14;;;;;;;35.47;24.55;;;;;;;14.13;100.00;104929.91;4990297;28;20717;-73
2023/12/02 10:08:39;;;;;;;34.05;24.00;;;;;;;14.02;100.00;104887.69;4989683;28;20042;-74
2023/12/02 10:11:18;;;;;;;33.15;24.23;;;;;;;13.90;100.00;104824.13;4972535;28;20124;-74
2023/12/02 10:13:49;;;;;;;33.28;24.73;;;;;;;14.14;100.00;104849.72;4972439;28;20022;-73
2023/12/02 10:16:18;;;;;;;32.42;23.70;;;;;;;14.17;100.00;104852.38;4989420;28;20088;-74
2023/12/02 10:18:53;;;;;;;35.08;24.25;;;;;;;14.18;100.00;104841.34;4988251;28;20081;-75
2023/12/02 10:21:21;;;;;;;33.17;24.63;;;;;;;13.50;100.00;104704.13;4988039;28;20061;-74
2023/12/02 10:24:01;;;;;;;39.08;27.23;;;;;;;14.01;100.00;104774.19;4989990;28;20030;-74
2023/12/02 10:26:32;;;;;;;40.38;28.50;;;;;;;14.41;100.00;104828.56;4988117;28;20039;-73
2023/12/02 10:29:24;;;;;;;42.58;27.80;;;;;;;14.27;100.00;104800.69;4990120;28;20079;-74
2023/12/02 10:32:04;;;;;;;35.67;26.75;;;;;;;14.36;100.00;104770.31;4988719;28;20125;-73
2023/12/02 10:34:42;;;;;;;36.13;27.15;;;;;;;13.92;100.00;104695.38;4990172;28;20034;-77
2023/12/02 10:37:09;;;;;;;39.83;28.08;;;;;;;14.11;100.00;104703.69;4988315;28;20477;-77
2023/12/02 10:39:46;;;;;;;38.38;28.90;;;;;;;14.11;100.00;104667.84;4972564;28;20117;-77
2023/12/02 10:42:21;;;;;;;39.35;31.65;;;;;;;13.65;100.00;104568.19;4989394;28;20854;-76
2023/12/02 10:44:48;;;;;;;45.42;33.20;;;;;;;13.94;100.00;104586.25;4971489;28;20031;-76
2023/12/02 10:47:16;;;;;;;45.05;32.38;;;;;;;14.36;100.00;104637.97;4988810;28;20037;-75
2023/12/02 10:49:42;;;;;;;40.75;27.52;;;;;;;14.10;100.00;104581.63;4988677;28;20085;-75
2023/12/02 10:52:12;;;;;;;35.53;27.67;;;;;;;14.62;100.00;104644.78;4989091;28;20058;-75
2023/12/02 10:54:43;;;;;;;41.10;30.85;;;;;;;13.87;100.00;104496.44;4987903;28;20030;-75
2023/12/02 10:57:10;;;;;;;42.58;31.27;;;;;;;14.65;100.00;104603.91;4989671;28;20034;-76
2023/12/02 11:00:03;;;;;;;45.58;32.67;;;;;;;14.41;100.00;104543.38;4989191;28;20034;-74
2023/12/02 11:02:37;;;;;;;44.45;31.50;;;;;;;14.07;100.00;104476.56;4984258;28;20082;-74
2023/12/02 11:05:28;;;;;;;41.53;32.28;;;;;;;13.80;100.00;104400.72;4989518;28;20390;-75
2023/12/02 11:07:59;;;;;;;44.90;33.58;;;;;;;14.25;100.00;104462.63;4988449;28;20038;-76